Lowville, New York
Current Conditions -  °F | °C
As of 1:36 AM on Tuesday 21 Oct 2014 (Local Time) from KGTB Reporting Station
Drizzle Drizzle  
Wind Chill: 45°   Ceiling: 3900
Heat Index: 48°   Visibility: 10mi
Dew Point: 41°   Wind: 7mph
Humidity: 76%   Direction: 150°SSE
Pressure: 29.85"   Gusts: NA
Location:  43.79°N, 75.49°W
Report Text: KGTB 210536Z AUTO 15006KT 10SM -DZ FEW027 OVC039 09/05 A2985 RMK AO2 DZB0536
Loading
Personal Weather Stations






























Interactive Weather Map
Tropical Storm Tracking
New forecast layout! Learn more

10-Day Weather Forecast

Advertisements
Track Severe Weather on mobile